Terminal Aerodrome Forecast
Issued by NWS Missoula, MT

Home | Current Version | Previous Version | Text Only | Print | Product List | Glossary On
Versions: 1 2 3 4 5 6 7 8 9 10 11 12 13
750
FTUS45 KMSO 092338
TAFMSO
TAF
KMSO 092338Z 1000/1024 VRB05KT 3SM -SN BKN030 OVC040
      TEMPO 1000/1001 1SM -SN BKN020
     FM100100 VRB05KT 1SM -SN BR BKN015 OVC030
     FM101000 VRB03KT 1SM -SN BR BKN007 OVC015=

USA.gov is the U.S. government's official web portal to all federal, state and local government web resources and services.